createdAt,value
2019-02-26T00:02:48.601Z,9.48
2019-02-26T00:05:39.263Z,9.50
2019-02-26T00:08:33.523Z,9.15
2019-02-26T00:11:28.511Z,9.58
2019-02-26T00:14:22.384Z,10.72
2019-02-26T00:17:15.324Z,10.40
2019-02-26T00:20:10.943Z,10.80
2019-02-26T00:23:04.394Z,11.12
2019-02-26T00:25:57.027Z,12.23
2019-02-26T00:28:51.035Z,11.28
2019-02-26T00:34:36.771Z,11.85
2019-02-26T00:37:30.669Z,13.58
2019-02-26T00:40:24.442Z,12.45
2019-02-26T00:43:20.947Z,10.95
2019-02-26T00:46:11.662Z,13.10
2019-02-26T00:49:05.764Z,14.00
2019-02-26T00:51:59.942Z,13.80
2019-02-26T00:54:53.601Z,13.38
2019-02-26T00:57:46.486Z,14.63
2019-02-26T01:00:39.915Z,12.78
2019-02-26T01:03:33.565Z,12.65
2019-02-26T01:06:26.822Z,13.53
2019-02-26T01:09:23.003Z,12.82
2019-02-26T01:12:18.216Z,9.70
2019-02-26T01:15:15.625Z,13.68
2019-02-26T01:18:08.802Z,12.75
2019-02-26T01:21:03.783Z,11.18
2019-02-26T01:23:58.576Z,13.18
2019-02-26T01:26:50.135Z,9.28
2019-02-26T01:32:35.735Z,11.00
2019-02-26T01:35:30.809Z,13.72
2019-02-26T01:38:23.805Z,14.03
2019-02-26T01:41:17.992Z,16.30
2019-02-26T01:44:10.796Z,15.58
2019-02-26T01:47:04.698Z,15.40
2019-02-26T01:49:59.310Z,18.85
2019-02-26T01:52:53.958Z,16.10
2019-02-26T01:55:45.943Z,20.48
2019-02-26T01:58:40.782Z,13.13
2019-02-26T02:01:32.824Z,15.85
2019-02-26T02:04:25.920Z,14.58
2019-02-26T02:07:18.947Z,15.72
2019-02-26T02:10:16.821Z,16.05
2019-02-26T02:13:11.286Z,22.15
2019-02-26T02:16:04.543Z,17.35
2019-02-26T02:18:59.997Z,19.02
2019-02-26T02:21:53.876Z,20.02
2019-02-26T02:24:50.822Z,19.07
2019-02-26T02:27:42.749Z,19.12
2019-02-26T02:30:39.030Z,17.60
2019-02-26T02:33:32.967Z,17.20
2019-02-26T02:36:29.886Z,19.82
2019-02-26T02:39:26.555Z,17.15
2019-02-26T02:42:19.168Z,19.50
2019-02-26T02:45:16.993Z,19.98
2019-02-26T02:48:09.223Z,17.48
2019-02-26T02:51:02.365Z,16.02
2019-02-26T02:53:59.225Z,22.00
2019-02-26T02:56:50.296Z,23.07
2019-02-26T02:59:42.872Z,23.05
2019-02-26T03:02:42.787Z,19.62
2019-02-26T03:05:37.234Z,20.08
2019-02-26T03:08:29.241Z,20.35
2019-02-26T03:11:21.606Z,19.02
2019-02-26T03:23:48.866Z,19.32
2019-02-26T03:26:42.246Z,23.07
2019-02-26T03:29:35.230Z,24.80
2019-02-26T03:32:28.655Z,23.05
2019-02-26T03:35:23.268Z,18.57
2019-02-26T03:38:20.634Z,23.42
2019-02-26T03:41:16.466Z,22.35
2019-02-26T03:44:09.278Z,22.10
2019-02-26T03:47:02.868Z,20.72
2019-02-26T03:49:56.667Z,26.68
2019-02-26T03:52:50.360Z,26.20
2019-02-26T03:55:44.046Z,29.95
2019-02-26T03:58:37.411Z,22.73
2019-02-26T04:01:31.346Z,23.70
2019-02-26T04:04:26.152Z,22.73
2019-02-26T04:07:19.606Z,21.00
2019-02-26T04:10:13.927Z,25.17
2019-02-26T04:13:07.094Z,28.65
2019-02-26T04:16:03.846Z,24.23
2019-02-26T04:18:55.340Z,23.35
2019-02-26T04:22:26.416Z,24.25
2019-02-26T04:25:36.483Z,25.10
2019-02-26T04:28:40.372Z,24.10
2019-02-26T04:31:52.185Z,27.80
2019-02-26T04:34:48.460Z,23.62
2019-02-26T04:38:01.005Z,24.35
2019-02-26T04:41:00.418Z,24.60
2019-02-26T04:44:12.658Z,22.82
2019-02-26T04:47:05.857Z,24.02
2019-02-26T04:50:00.520Z,31.93
2019-02-26T04:52:58.330Z,29.60
2019-02-26T04:55:47.763Z,27.87
2019-02-26T04:58:42.583Z,26.10
2019-02-26T05:01:36.328Z,26.62
2019-02-26T05:04:30.751Z,27.40
2019-02-26T05:07:25.179Z,29.82
2019-02-26T05:10:20.371Z,28.73
2019-02-26T05:13:13.131Z,26.50
2019-02-26T05:16:08.736Z,32.78
2019-02-26T05:19:01.714Z,33.95
2019-02-26T05:24:50.296Z,29.63
2019-02-26T05:27:47.015Z,31.87
2019-02-26T05:30:40.432Z,34.20
2019-02-26T05:33:33.450Z,38.70
2019-02-26T05:36:28.358Z,35.05
2019-02-26T05:39:23.618Z,35.10
2019-02-26T05:42:15.744Z,34.80
2019-02-26T05:45:09.631Z,35.60
2019-02-26T05:48:02.697Z,37.90
2019-02-26T05:50:57.509Z,33.55
2019-02-26T05:53:50.157Z,38.25
2019-02-26T05:56:46.111Z,35.05
2019-02-26T05:59:37.504Z,36.63
2019-02-26T06:02:31.490Z,38.63
2019-02-26T06:05:26.183Z,33.85
2019-02-26T06:08:20.717Z,37.70
2019-02-26T06:11:16.910Z,36.23
2019-02-26T06:14:12.004Z,35.95
2019-02-26T06:17:02.384Z,36.25
2019-02-26T06:19:57.260Z,40.15
2019-02-26T06:22:49.833Z,40.98
2019-02-26T06:25:43.363Z,40.98
2019-02-26T06:28:40.110Z,35.85
2019-02-26T06:31:30.852Z,35.92
2019-02-26T06:34:24.752Z,31.85
2019-02-26T06:37:23.371Z,29.07
2019-02-26T06:40:17.284Z,30.72
2019-02-26T06:43:11.616Z,29.40
2019-02-26T06:46:09.175Z,32.00
2019-02-26T06:48:59.660Z,30.17
2019-02-26T06:51:54.541Z,30.92
2019-02-26T06:54:54.760Z,28.73
2019-02-26T06:57:46.366Z,26.30
2019-02-26T07:00:38.526Z,24.67
2019-02-26T07:03:31.646Z,20.70
2019-02-26T07:06:27.634Z,23.38
2019-02-26T07:09:20.940Z,25.32
2019-02-26T07:12:15.051Z,19.02
2019-02-26T07:15:12.153Z,19.27
2019-02-26T07:18:09.116Z,21.35
2019-02-26T07:21:00.524Z,15.28
2019-02-26T07:23:54.619Z,21.68
2019-02-26T07:26:48.831Z,24.67
2019-02-26T07:29:45.721Z,24.67
2019-02-26T07:32:38.257Z,22.67
2019-02-26T07:35:35.021Z,21.87
2019-02-26T07:38:27.836Z,20.20
2019-02-26T07:41:23.150Z,21.37
2019-02-26T07:44:18.748Z,22.62
2019-02-26T07:47:13.279Z,21.33
2019-02-26T07:50:09.187Z,23.02
2019-02-26T07:53:03.232Z,21.52
2019-02-26T07:55:58.802Z,21.97
2019-02-26T07:58:52.153Z,20.23
2019-02-26T08:01:47.024Z,23.45
2019-02-26T08:04:41.792Z,24.70
2019-02-26T08:07:34.965Z,23.95
2019-02-26T08:10:28.738Z,22.27
2019-02-26T08:13:23.820Z,21.33
2019-02-26T08:16:18.195Z,21.07
2019-02-26T08:19:10.935Z,21.33
2019-02-26T08:22:03.827Z,25.85
2019-02-26T08:24:58.142Z,21.70
2019-02-26T08:27:52.167Z,22.85
2019-02-26T08:30:47.481Z,24.18
2019-02-26T08:33:41.050Z,25.05
2019-02-26T08:36:34.018Z,25.45
2019-02-26T08:39:27.541Z,23.25
2019-02-26T08:42:21.009Z,24.52
2019-02-26T08:45:21.159Z,23.25
2019-02-26T08:48:15.033Z,23.32
2019-02-26T08:51:13.537Z,27.27
2019-02-26T08:54:04.922Z,27.42
2019-02-26T08:59:54.550Z,25.25
2019-02-26T09:02:50.540Z,25.37
2019-02-26T09:05:41.591Z,29.98
2019-02-26T09:08:35.539Z,28.83
2019-02-26T09:11:31.826Z,26.70
2019-02-26T09:14:24.458Z,25.08
2019-02-26T09:17:20.922Z,28.20
2019-02-26T09:20:14.689Z,26.07
2019-02-26T09:23:08.430Z,29.18
2019-02-26T09:26:02.585Z,34.85
2019-02-26T09:28:57.160Z,29.98
2019-02-26T09:31:50.312Z,31.40
2019-02-26T09:34:44.244Z,34.00
2019-02-26T09:37:38.747Z,31.45
2019-02-26T09:40:34.236Z,33.33
2019-02-26T09:43:27.058Z,30.82
2019-02-26T09:46:21.016Z,29.25
2019-02-26T09:49:14.376Z,29.70
2019-02-26T09:52:08.197Z,31.45
2019-02-26T09:55:01.717Z,30.45
2019-02-26T09:57:56.718Z,31.77
2019-02-26T10:00:51.144Z,31.52
2019-02-26T10:03:44.980Z,31.20
2019-02-26T10:06:40.539Z,33.78
2019-02-26T10:09:34.741Z,29.75
2019-02-26T10:12:28.009Z,31.80
2019-02-26T10:15:22.173Z,32.35
2019-02-26T10:18:15.281Z,30.48
2019-02-26T10:21:10.687Z,34.75
2019-02-26T10:24:04.465Z,31.35
2019-02-26T10:26:58.664Z,32.15
2019-02-26T10:29:50.827Z,30.43
2019-02-26T10:32:46.798Z,31.10
2019-02-26T10:35:44.355Z,32.25
2019-02-26T10:38:38.422Z,33.00
2019-02-26T10:41:34.236Z,31.85
2019-02-26T10:44:26.587Z,29.72
2019-02-26T10:47:20.000Z,30.08
2019-02-26T10:50:19.347Z,31.07
2019-02-26T10:53:19.470Z,27.35
2019-02-26T10:56:10.147Z,26.55
2019-02-26T10:59:06.140Z,29.77
2019-02-26T11:02:00.145Z,26.35
2019-02-26T11:04:55.006Z,29.48
2019-02-26T11:07:46.723Z,29.23
2019-02-26T11:10:44.434Z,29.05
2019-02-26T11:13:37.306Z,28.47
2019-02-26T11:16:33.076Z,24.40
2019-02-26T11:19:27.229Z,26.55
2019-02-26T11:22:21.314Z,27.48
2019-02-26T11:25:21.180Z,27.40
2019-02-26T11:28:13.096Z,25.92
2019-02-26T11:31:08.864Z,26.07
2019-02-26T11:34:04.058Z,25.75
2019-02-26T11:36:58.455Z,24.77
2019-02-26T11:39:52.792Z,24.30
2019-02-26T11:42:46.788Z,25.37
2019-02-26T11:45:41.462Z,22.58
2019-02-26T11:48:35.489Z,23.07
2019-02-26T11:51:36.796Z,23.92
2019-02-26T11:54:22.868Z,23.18
2019-02-26T11:57:17.913Z,24.43
2019-02-26T12:00:25.401Z,22.95
2019-02-26T12:03:12.509Z,22.00
2019-02-26T12:06:07.051Z,25.20
2019-02-26T12:09:03.034Z,23.25
2019-02-26T12:11:58.389Z,21.87
2019-02-26T12:14:50.286Z,24.95
2019-02-26T12:17:45.961Z,22.65
2019-02-26T12:20:40.986Z,22.95
2019-02-26T12:23:34.507Z,24.98
2019-02-26T12:26:29.728Z,23.73
2019-02-26T12:29:23.652Z,25.23
2019-02-26T12:32:19.952Z,22.85
2019-02-26T12:35:12.680Z,21.90
2019-02-26T12:38:18.299Z,20.52
2019-02-26T12:41:02.885Z,24.52
2019-02-26T12:43:58.787Z,19.37
2019-02-26T12:46:56.704Z,18.70
2019-02-26T12:49:48.545Z,19.37
2019-02-26T12:52:44.243Z,21.97
2019-02-26T12:55:41.227Z,23.40
2019-02-26T12:58:33.032Z,20.77
2019-02-26T13:01:26.228Z,20.90
2019-02-26T13:04:24.815Z,21.90
2019-02-26T13:07:17.129Z,21.60
2019-02-26T13:10:12.983Z,27.82
2019-02-26T13:13:07.512Z,26.45
2019-02-26T13:16:00.911Z,26.93
2019-02-26T13:19:00.896Z,19.10
2019-02-26T13:21:51.750Z,19.10
2019-02-26T13:24:45.386Z,20.10
2019-02-26T13:27:39.651Z,18.20
2019-02-26T13:30:34.302Z,22.07
2019-02-26T13:33:33.918Z,20.95
2019-02-26T13:36:21.741Z,20.92
2019-02-26T13:39:21.934Z,23.92
2019-02-26T13:42:13.975Z,21.15
2019-02-26T13:45:04.465Z,22.15
2019-02-26T13:48:01.299Z,21.30
2019-02-26T13:50:53.494Z,24.57
2019-02-26T13:53:47.417Z,25.65
2019-02-26T13:56:41.503Z,26.17
2019-02-26T13:59:35.994Z,25.90
2019-02-26T14:02:30.280Z,27.27
2019-02-26T14:05:23.652Z,27.52
2019-02-26T14:08:17.091Z,26.73
2019-02-26T14:11:12.181Z,24.82
2019-02-26T14:14:06.124Z,27.07
2019-02-26T14:16:59.545Z,26.45
2019-02-26T14:19:52.901Z,27.82
2019-02-26T14:22:47.350Z,26.30
2019-02-26T14:25:40.824Z,26.20
2019-02-26T14:28:34.860Z,26.12
2019-02-26T14:31:28.043Z,25.02
2019-02-26T14:34:22.181Z,27.37
2019-02-26T14:37:15.727Z,24.12
2019-02-26T14:40:11.636Z,23.47
2019-02-26T14:46:22.819Z,25.35
2019-02-26T14:49:16.472Z,23.45
2019-02-26T14:52:12.518Z,27.75
2019-02-26T14:55:06.425Z,27.80
2019-02-26T14:58:00.249Z,24.98
2019-02-26T15:00:57.777Z,22.17
2019-02-26T15:03:49.917Z,25.43
2019-02-26T15:06:45.562Z,23.22
2019-02-26T15:09:40.611Z,24.02
2019-02-26T15:12:33.388Z,23.55
2019-02-26T15:15:29.675Z,21.02
2019-02-26T15:18:24.496Z,21.05
2019-02-26T15:21:17.330Z,19.23
2019-02-26T15:24:11.174Z,21.60
2019-02-26T15:27:06.354Z,22.95
2019-02-26T15:30:04.307Z,21.25
2019-02-26T15:32:59.150Z,22.87
2019-02-26T15:35:52.978Z,20.72
2019-02-26T15:38:47.354Z,22.17
2019-02-26T15:41:41.358Z,22.40
2019-02-26T15:44:35.189Z,22.07
2019-02-26T15:47:30.503Z,21.25
2019-02-26T15:50:23.777Z,22.90
2019-02-26T15:56:08.825Z,21.50
2019-02-26T15:59:04.559Z,23.10
2019-02-26T16:02:04.153Z,22.70
2019-02-26T16:04:57.224Z,23.83
2019-02-26T16:07:49.868Z,22.93
2019-02-26T16:10:42.482Z,23.18
2019-02-26T16:13:35.376Z,19.07
2019-02-26T16:16:27.245Z,18.87
2019-02-26T16:19:21.310Z,22.42
2019-02-26T16:22:16.063Z,21.12
2019-02-26T16:25:10.754Z,23.60
2019-02-26T16:28:04.217Z,20.80
2019-02-26T16:30:57.863Z,23.22
2019-02-26T16:33:51.268Z,22.20
2019-02-26T16:36:44.855Z,21.68
2019-02-26T16:39:38.685Z,24.05
2019-02-26T16:42:34.414Z,21.73
2019-02-26T16:45:35.165Z,22.62
2019-02-26T16:48:27.863Z,22.80
2019-02-26T16:51:21.782Z,22.20
2019-02-26T16:54:50.079Z,23.60
2019-02-26T16:57:44.115Z,22.05
2019-02-26T17:00:38.311Z,22.02
2019-02-26T17:03:31.712Z,20.92
2019-02-26T17:06:26.791Z,23.55
2019-02-26T17:09:45.158Z,23.50
2019-02-26T17:12:40.335Z,22.27
2019-02-26T17:15:50.351Z,21.80
2019-02-26T17:22:06.160Z,24.60
2019-02-26T17:24:59.548Z,21.57
2019-02-26T17:27:53.533Z,25.27
2019-02-26T17:30:49.237Z,22.42
2019-02-26T17:33:48.293Z,21.12
2019-02-26T17:36:42.811Z,20.95
2019-02-26T17:39:37.911Z,24.90
2019-02-26T17:42:35.087Z,21.93
2019-02-26T17:45:40.359Z,22.60
2019-02-26T17:48:43.237Z,22.25
2019-02-26T17:51:33.177Z,21.93
2019-02-26T17:54:29.088Z,24.67
2019-02-26T17:57:24.335Z,21.07
2019-02-26T18:00:25.463Z,24.18
2019-02-26T18:03:27.033Z,22.17
2019-02-26T18:06:21.377Z,24.43
2019-02-26T18:09:16.348Z,21.85
2019-02-26T18:12:14.039Z,21.07
2019-02-26T18:15:08.802Z,24.80
2019-02-26T18:18:08.001Z,23.62
2019-02-26T18:21:05.814Z,26.05
2019-02-26T18:23:57.092Z,26.30
2019-02-26T18:26:50.501Z,27.40
2019-02-26T18:29:44.636Z,27.30
2019-02-26T18:32:38.618Z,26.25
2019-02-26T18:35:32.461Z,25.60
2019-02-26T18:38:26.214Z,27.20
2019-02-26T18:41:20.370Z,23.55
2019-02-26T18:44:14.748Z,25.40
2019-02-26T18:47:10.182Z,26.02
2019-02-26T18:50:03.928Z,27.70
2019-02-26T18:52:59.348Z,23.55
2019-02-26T18:55:53.229Z,26.50
2019-02-26T18:58:49.044Z,28.45
2019-02-26T19:01:41.385Z,26.95
2019-02-26T19:07:32.966Z,28.23
2019-02-26T19:10:23.967Z,26.75
2019-02-26T19:13:18.166Z,27.90
2019-02-26T19:16:11.638Z,24.07
2019-02-26T19:19:06.729Z,25.40
2019-02-26T19:22:03.950Z,27.87
2019-02-26T19:24:57.531Z,26.80
2019-02-26T19:27:53.126Z,25.50
2019-02-26T19:30:45.514Z,25.32
2019-02-26T19:33:39.119Z,25.72
2019-02-26T19:36:33.096Z,27.25
2019-02-26T19:39:27.220Z,23.92
2019-02-26T19:42:21.131Z,21.00
2019-02-26T19:45:15.454Z,20.40
2019-02-26T19:48:09.628Z,19.02
2019-02-26T19:51:03.448Z,20.43
2019-02-26T19:54:00.938Z,17.65
2019-02-26T19:56:54.704Z,20.27
2019-02-26T19:59:48.834Z,19.67
2019-02-26T20:02:43.177Z,18.32
2019-02-26T20:05:37.118Z,19.52
2019-02-26T20:08:30.431Z,18.48
2019-02-26T20:11:24.315Z,19.57
2019-02-26T20:14:21.694Z,18.55
2019-02-26T20:17:14.984Z,16.65
2019-02-26T20:20:13.963Z,18.25
2019-02-26T20:23:07.814Z,17.52
2019-02-26T20:26:01.584Z,16.20
2019-02-26T20:28:55.922Z,16.87
2019-02-26T20:31:49.918Z,15.58
2019-02-26T20:34:45.209Z,16.32
2019-02-26T20:37:39.630Z,15.88
2019-02-26T20:40:35.214Z,16.30
2019-02-26T20:43:29.147Z,16.45
2019-02-26T20:46:24.988Z,15.20
2019-02-26T20:49:17.340Z,15.60
2019-02-26T20:52:10.876Z,18.67
2019-02-26T20:55:04.310Z,14.35
2019-02-26T20:57:58.148Z,10.43
2019-02-26T21:00:51.770Z,15.95
2019-02-26T21:03:45.526Z,15.88
2019-02-26T21:06:44.983Z,18.67
2019-02-26T21:09:41.052Z,15.45
2019-02-26T21:12:32.261Z,16.55
2019-02-26T21:15:28.859Z,17.07
2019-02-26T21:18:23.053Z,17.82
2019-02-26T21:21:16.754Z,12.98
2019-02-26T21:24:10.775Z,14.45
2019-02-26T21:27:04.469Z,14.53
2019-02-26T21:29:58.361Z,12.63
2019-02-26T21:32:51.952Z,13.05
2019-02-26T21:35:45.841Z,12.28
2019-02-26T21:38:40.682Z,13.55
2019-02-26T21:41:33.831Z,9.30
2019-02-26T21:44:27.705Z,8.33
2019-02-26T21:47:21.050Z,10.30
2019-02-26T21:50:22.107Z,8.20
2019-02-26T21:53:12.726Z,9.05
2019-02-26T21:56:07.124Z,6.62
2019-02-26T21:59:01.649Z,8.88
2019-02-26T22:01:56.291Z,6.72
2019-02-26T22:04:54.011Z,6.85
2019-02-26T22:07:51.827Z,8.93
2019-02-26T22:10:42.830Z,10.30
2019-02-26T22:13:36.278Z,7.47
2019-02-26T22:16:30.649Z,11.22
2019-02-26T22:19:24.588Z,12.15
2019-02-26T22:22:18.466Z,10.80
2019-02-26T22:25:15.976Z,10.25
2019-02-26T22:28:08.607Z,10.98
2019-02-26T22:31:01.916Z,11.12
2019-02-26T22:33:55.848Z,11.73
2019-02-26T22:36:49.553Z,7.72
2019-02-26T22:39:43.458Z,12.65
2019-02-26T22:45:28.473Z,10.63
2019-02-26T22:48:22.702Z,10.72
2019-02-26T22:51:15.766Z,10.72
2019-02-26T22:54:10.436Z,11.12
2019-02-26T22:57:04.271Z,10.88
2019-02-26T22:59:56.752Z,8.63
2019-02-26T23:02:50.730Z,9.10
2019-02-26T23:05:52.521Z,11.45
2019-02-26T23:08:46.897Z,10.18
2019-02-26T23:11:40.397Z,9.55
2019-02-26T23:14:35.897Z,9.43
2019-02-26T23:17:29.015Z,9.45
2019-02-26T23:20:24.502Z,9.68
2019-02-26T23:23:21.647Z,7.58
2019-02-26T23:26:14.102Z,9.63
2019-02-26T23:29:08.443Z,8.18
2019-02-26T23:32:03.763Z,8.15
2019-02-26T23:35:11.571Z,9.23
2019-02-26T23:38:08.050Z,8.58
2019-02-26T23:41:02.192Z,10.05
2019-02-26T23:43:59.443Z,12.37
2019-02-26T23:46:52.567Z,11.03
2019-02-26T23:49:47.624Z,11.93
2019-02-26T23:52:42.627Z,10.40
2019-02-26T23:55:47.226Z,10.20
2019-02-26T23:58:40.434Z,16.55
